createdAt,value
2023-11-25T00:01:49.851Z,5.50
2023-11-25T00:04:17.873Z,5.40
2023-11-25T00:06:46.101Z,5.40
2023-11-25T00:09:16.814Z,5.40
2023-11-25T00:11:46.180Z,5.80
2023-11-25T00:14:14.147Z,5.30
2023-11-25T00:16:42.209Z,5.30
2023-11-25T00:19:12.037Z,5.30
2023-11-25T00:21:40.041Z,5.30
2023-11-25T00:24:08.727Z,5.20
2023-11-25T00:26:36.827Z,5.20
2023-11-25T00:29:06.664Z,5.20
2023-11-25T00:31:35.107Z,5.20
2023-11-25T00:34:03.215Z,5.10
2023-11-25T00:36:32.651Z,5.10
2023-11-25T00:39:00.837Z,5.30
2023-11-25T00:41:28.814Z,5.00
2023-11-25T00:43:56.864Z,5.00
2023-11-25T00:46:26.357Z,5.00
2023-11-25T00:48:54.417Z,4.90
2023-11-25T00:51:22.455Z,5.00
2023-11-25T00:53:50.432Z,5.00
2023-11-25T00:56:18.387Z,5.00
2023-11-25T00:58:46.342Z,5.20
2023-11-25T01:01:14.292Z,5.30
2023-11-25T01:03:43.727Z,5.50
2023-11-25T01:06:12.160Z,5.50
2023-11-25T01:08:39.201Z,5.60
2023-11-25T01:11:07.953Z,5.60
2023-11-25T01:13:35.962Z,5.60
2023-11-25T01:16:04.352Z,5.70
2023-11-25T01:18:32.784Z,5.60
2023-11-25T01:21:02.117Z,5.60
2023-11-25T01:23:30.085Z,5.80
2023-11-25T01:25:58.067Z,5.70
2023-11-25T01:28:30.856Z,5.70
2023-11-25T01:31:11.323Z,5.70
2023-11-25T01:33:41.855Z,5.80
2023-11-25T01:36:23.311Z,5.70
2023-11-25T01:38:51.285Z,6.50
2023-11-25T01:41:19.307Z,5.70
2023-11-25T01:43:47.416Z,5.80
2023-11-25T01:46:29.235Z,5.80
2023-11-25T01:48:57.263Z,5.80
2023-11-25T01:51:28.573Z,6.00
2023-11-25T01:53:57.095Z,6.00
2023-11-25T01:56:25.733Z,6.00
2023-11-25T01:58:53.795Z,6.00
2023-11-25T02:01:22.235Z,6.00
2023-11-25T02:03:50.306Z,6.00
2023-11-25T02:06:18.268Z,6.00
2023-11-25T02:08:47.707Z,6.00
2023-11-25T02:11:15.702Z,6.00
2023-11-25T02:13:45.193Z,5.90
2023-11-25T02:16:14.710Z,5.90
2023-11-25T02:18:42.706Z,6.00
2023-11-25T02:21:11.438Z,5.90
2023-11-25T02:23:41.027Z,6.00
2023-11-25T02:26:09.417Z,6.00
2023-11-25T02:28:37.486Z,6.00
2023-11-25T02:31:05.590Z,5.90
2023-11-25T02:33:36.746Z,5.90
2023-11-25T02:36:05.316Z,5.80
2023-11-25T02:38:33.418Z,5.80
2023-11-25T02:41:03.053Z,5.90
2023-11-25T02:43:31.830Z,5.90
2023-11-25T02:45:59.875Z,5.80
2023-11-25T02:48:27.947Z,5.80
2023-11-25T02:50:55.943Z,5.80
2023-11-25T02:53:24.732Z,5.80
2023-11-25T02:55:53.121Z,5.80
2023-11-25T02:58:23.410Z,5.90
2023-11-25T03:00:53.418Z,6.60
2023-11-25T03:03:23.975Z,5.90
2023-11-25T03:05:54.392Z,5.90
2023-11-25T03:08:23.638Z,5.90
2023-11-25T03:10:52.369Z,6.10
2023-11-25T03:13:21.820Z,6.20
2023-11-25T03:15:49.925Z,6.20
2023-11-25T03:18:17.980Z,6.20
2023-11-25T03:20:45.954Z,6.20
2023-11-25T03:23:13.982Z,6.20
2023-11-25T03:25:42.198Z,6.20
2023-11-25T03:28:11.772Z,6.10
2023-11-25T03:30:42.078Z,6.60
2023-11-25T03:33:11.025Z,6.30
2023-11-25T03:35:39.353Z,6.40
2023-11-25T03:38:07.350Z,6.50
2023-11-25T03:40:35.386Z,6.40
2023-11-25T03:43:03.527Z,6.50
2023-11-25T03:45:31.874Z,6.50
2023-11-25T03:48:01.749Z,6.40
2023-11-25T03:50:30.471Z,6.40
2023-11-25T03:52:58.484Z,6.50
2023-11-25T03:55:26.492Z,6.60
2023-11-25T03:57:54.495Z,6.70
2023-11-25T04:00:23.695Z,6.70
2023-11-25T04:02:52.618Z,6.70
2023-11-25T04:05:23.801Z,6.80
2023-11-25T04:07:52.068Z,6.70
2023-11-25T04:10:20.172Z,6.70
2023-11-25T04:12:49.640Z,6.70
2023-11-25T04:15:20.722Z,6.70
2023-11-25T04:17:49.746Z,6.80
2023-11-25T04:20:25.172Z,7.10
2023-11-25T04:22:54.714Z,6.70
2023-11-25T04:25:23.988Z,6.60
2023-11-25T04:27:52.635Z,6.60
2023-11-25T04:30:20.735Z,6.70
2023-11-25T04:32:50.286Z,6.60
2023-11-25T04:35:18.578Z,6.70
2023-11-25T04:37:47.752Z,6.50
2023-11-25T04:40:19.610Z,6.40
2023-11-25T04:42:47.958Z,6.30
2023-11-25T04:45:18.177Z,6.20
2023-11-25T04:47:46.934Z,6.20
2023-11-25T04:50:15.222Z,6.10
2023-11-25T04:52:44.049Z,6.10
2023-11-25T04:55:13.404Z,6.00
2023-11-25T04:57:43.127Z,6.00
2023-11-25T05:00:14.569Z,5.90
2023-11-25T05:02:44.126Z,5.80
2023-11-25T05:05:13.335Z,5.80
2023-11-25T05:07:41.876Z,5.80
2023-11-25T05:10:11.908Z,5.80
2023-11-25T05:12:42.471Z,5.70
2023-11-25T05:15:12.966Z,5.80
2023-11-25T05:17:41.583Z,5.80
2023-11-25T05:20:17.616Z,5.90
2023-11-25T05:22:46.487Z,6.00
2023-11-25T05:25:16.165Z,4.90
2023-11-25T05:27:44.970Z,6.10
2023-11-25T05:30:15.769Z,6.00
2023-11-25T05:32:45.041Z,6.20
2023-11-25T05:35:14.166Z,6.20
2023-11-25T05:37:44.333Z,6.30
2023-11-25T05:40:15.047Z,6.40
2023-11-25T05:42:49.469Z,6.40
2023-11-25T05:45:21.629Z,6.30
2023-11-25T05:47:49.999Z,6.20
2023-11-25T05:50:21.529Z,6.60
2023-11-25T05:52:50.141Z,6.10
2023-11-25T05:55:20.771Z,6.10
2023-11-25T05:57:51.568Z,6.10
2023-11-25T06:00:22.533Z,6.10
2023-11-25T06:02:51.003Z,6.10
2023-11-25T06:05:19.153Z,6.20
2023-11-25T06:07:47.269Z,6.10
2023-11-25T06:10:15.501Z,6.10
2023-11-25T06:12:43.797Z,6.10
2023-11-25T06:15:12.725Z,6.50
2023-11-25T06:17:42.985Z,6.10
2023-11-25T06:20:12.119Z,6.10
2023-11-25T06:22:42.122Z,6.20
2023-11-25T06:25:10.833Z,6.30
2023-11-25T06:27:38.858Z,6.30
2023-11-25T06:30:08.007Z,6.40
2023-11-25T06:32:36.024Z,6.30
2023-11-25T06:35:07.362Z,6.30
2023-11-25T06:37:36.384Z,6.30
2023-11-25T06:40:07.170Z,6.50
2023-11-25T06:42:35.198Z,6.30
2023-11-25T06:45:03.715Z,6.70
2023-11-25T06:47:31.789Z,6.30
2023-11-25T06:49:59.810Z,6.30
2023-11-25T06:52:29.449Z,6.30
2023-11-25T06:54:57.460Z,6.40
2023-11-25T06:57:25.478Z,6.40
2023-11-25T06:59:53.430Z,6.50
2023-11-25T07:02:21.486Z,6.50
2023-11-25T07:04:50.647Z,6.50
2023-11-25T07:07:18.642Z,6.60
2023-11-25T07:09:47.994Z,6.60
2023-11-25T07:12:16.736Z,6.60
2023-11-25T07:14:45.115Z,6.60
2023-11-25T07:17:13.861Z,6.70
2023-11-25T07:19:42.479Z,6.90
2023-11-25T07:22:10.714Z,6.60
2023-11-25T07:24:40.759Z,6.50
2023-11-25T07:27:11.973Z,6.40
2023-11-25T07:29:39.947Z,6.60
2023-11-25T07:32:10.995Z,7.20
2023-11-25T07:34:39.085Z,6.30
2023-11-25T07:37:07.811Z,6.30
2023-11-25T07:39:36.357Z,6.30
2023-11-25T07:42:05.258Z,6.30
2023-11-25T07:44:34.687Z,6.30
2023-11-25T07:47:03.703Z,6.30
2023-11-25T07:49:32.969Z,6.80
2023-11-25T07:52:01.029Z,6.30
2023-11-25T07:54:29.152Z,6.30
2023-11-25T07:56:57.128Z,6.30
2023-11-25T07:59:26.681Z,6.30
2023-11-25T08:01:56.083Z,6.40
2023-11-25T08:04:24.171Z,6.50
2023-11-25T08:06:52.182Z,6.50
2023-11-25T08:09:20.493Z,6.60
2023-11-25T08:11:49.426Z,6.60
2023-11-25T08:14:18.540Z,6.60
2023-11-25T08:16:48.549Z,6.70
2023-11-25T08:19:22.347Z,6.70
2023-11-25T08:21:50.552Z,6.70
2023-11-25T08:24:19.725Z,6.80
2023-11-25T08:26:48.303Z,6.70
2023-11-25T08:29:16.874Z,6.80
2023-11-25T08:31:45.179Z,6.70
2023-11-25T08:34:13.606Z,7.00
2023-11-25T08:36:53.994Z,7.90
2023-11-25T08:39:26.575Z,7.90
2023-11-25T08:41:55.226Z,6.90
2023-11-25T08:44:23.264Z,7.50
2023-11-25T08:46:52.802Z,6.70
2023-11-25T08:49:23.159Z,6.60
2023-11-25T08:51:52.669Z,6.50
2023-11-25T08:54:21.729Z,6.50
2023-11-25T08:56:50.243Z,6.90
2023-11-25T08:59:21.233Z,6.90
2023-11-25T09:01:52.724Z,6.70
2023-11-25T09:04:21.703Z,6.70
2023-11-25T09:06:49.858Z,7.00
2023-11-25T09:09:21.782Z,6.70
2023-11-25T09:11:50.031Z,6.90
2023-11-25T09:14:19.934Z,7.00
2023-11-25T09:16:48.213Z,7.00
2023-11-25T09:19:16.282Z,6.90
2023-11-25T09:21:45.973Z,6.90
2023-11-25T09:24:14.242Z,6.80
2023-11-25T09:26:43.669Z,6.80
2023-11-25T09:29:11.803Z,6.80
2023-11-25T09:31:39.997Z,6.80
2023-11-25T09:34:09.579Z,6.90
2023-11-25T09:36:37.679Z,8.20
2023-11-25T09:39:10.796Z,7.10
2023-11-25T09:41:39.240Z,7.10
2023-11-25T09:44:10.227Z,7.20
2023-11-25T09:46:38.871Z,7.30
2023-11-25T09:49:07.098Z,7.30
2023-11-25T09:51:35.125Z,7.40
2023-11-25T09:54:08.823Z,7.50
2023-11-25T09:56:38.189Z,7.70
2023-11-25T09:59:06.715Z,7.80
2023-11-25T10:01:37.878Z,7.60
2023-11-25T10:04:09.116Z,8.50
2023-11-25T10:06:37.238Z,7.30
2023-11-25T10:09:10.119Z,7.20
2023-11-25T10:11:40.384Z,7.90
2023-11-25T10:14:14.632Z,7.10
2023-11-25T10:16:45.368Z,7.10
2023-11-25T10:19:20.651Z,8.40
2023-11-25T10:21:49.424Z,7.20
2023-11-25T10:24:18.463Z,7.70
2023-11-25T10:26:47.309Z,7.20
2023-11-25T10:29:15.663Z,7.80
2023-11-25T10:31:46.426Z,7.40
2023-11-25T10:34:14.758Z,7.90
2023-11-25T10:36:43.640Z,7.40
2023-11-25T10:39:11.707Z,7.50
2023-11-25T10:41:40.251Z,8.60
2023-11-25T10:44:10.320Z,7.60
2023-11-25T10:46:42.856Z,7.60
2023-11-25T10:49:13.227Z,7.80
2023-11-25T10:51:41.662Z,8.40
2023-11-25T10:54:11.017Z,8.60
2023-11-25T10:56:39.776Z,7.90
2023-11-25T10:59:08.148Z,8.10
2023-11-25T11:01:41.326Z,8.10
2023-11-25T11:04:20.891Z,9.10
2023-11-25T11:06:54.559Z,8.10
2023-11-25T11:09:24.932Z,8.10
2023-11-25T11:11:57.493Z,8.60
2023-11-25T11:14:28.667Z,8.40
2023-11-25T11:17:06.327Z,8.80
2023-11-25T11:19:42.561Z,8.40
2023-11-25T11:22:13.273Z,8.50
2023-11-25T11:25:05.354Z,8.70
2023-11-25T11:27:39.476Z,8.70
2023-11-25T11:30:16.430Z,8.60
2023-11-25T11:32:46.064Z,8.70
2023-11-25T11:35:15.622Z,8.70
2023-11-25T11:37:50.965Z,8.70
2023-11-25T11:40:23.532Z,8.60
2023-11-25T11:42:51.752Z,8.60
2023-11-25T11:45:23.921Z,9.10
2023-11-25T11:47:54.160Z,8.60
2023-11-25T11:50:28.881Z,8.60
2023-11-25T11:53:14.366Z,8.60
2023-11-25T11:55:43.898Z,8.60
2023-11-25T11:58:13.593Z,8.70
2023-11-25T12:00:42.873Z,8.70
2023-11-25T12:03:11.472Z,8.70
2023-11-25T12:05:41.048Z,8.70
2023-11-25T12:08:09.180Z,8.80
2023-11-25T12:10:37.845Z,8.90
2023-11-25T12:13:06.200Z,9.10
2023-11-25T12:15:34.463Z,9.10
2023-11-25T12:18:04.128Z,9.20
2023-11-25T12:20:32.365Z,9.30
2023-11-25T12:23:08.334Z,9.40
2023-11-25T12:25:37.448Z,9.40
2023-11-25T12:28:09.614Z,9.30
2023-11-25T12:30:38.739Z,10.20
2023-11-25T12:33:08.185Z,9.80
2023-11-25T12:35:37.137Z,9.60
2023-11-25T12:38:14.710Z,9.60
2023-11-25T12:40:46.296Z,9.20
2023-11-25T12:43:15.082Z,9.10
2023-11-25T12:45:44.942Z,9.20
2023-11-25T12:48:14.531Z,9.50
2023-11-25T12:51:01.015Z,9.70
2023-11-25T12:53:30.422Z,9.90
2023-11-25T12:56:00.337Z,9.80
2023-11-25T12:58:28.663Z,9.20
2023-11-25T13:00:58.043Z,9.20
2023-11-25T13:03:27.525Z,9.10
2023-11-25T13:06:00.782Z,9.20
2023-11-25T13:08:33.043Z,9.40
2023-11-25T13:11:01.841Z,9.30
2023-11-25T13:13:30.840Z,9.30
2023-11-25T13:15:59.213Z,9.30
2023-11-25T13:18:28.078Z,9.40
2023-11-25T13:20:57.039Z,9.80
2023-11-25T13:23:25.706Z,9.40
2023-11-25T13:25:55.231Z,9.70
2023-11-25T13:28:23.381Z,9.40
2023-11-25T13:30:52.185Z,9.80
2023-11-25T13:33:20.606Z,9.30
2023-11-25T13:35:48.949Z,10.10
2023-11-25T13:38:17.878Z,9.50
2023-11-25T13:40:46.203Z,9.90
2023-11-25T13:43:18.032Z,9.40
2023-11-25T13:45:46.571Z,9.80
2023-11-25T13:48:17.487Z,9.30
2023-11-25T13:50:45.653Z,10.00
2023-11-25T13:53:14.890Z,9.10
2023-11-25T13:55:46.352Z,9.10
2023-11-25T13:58:16.893Z,9.90
2023-11-25T14:00:45.489Z,8.90
2023-11-25T14:03:15.073Z,8.90
2023-11-25T14:05:44.383Z,8.90
2023-11-25T14:08:15.943Z,8.80
2023-11-25T14:10:44.858Z,8.70
2023-11-25T14:13:15.173Z,8.70
2023-11-25T14:15:44.656Z,9.40
2023-11-25T14:18:12.679Z,8.40
2023-11-25T14:20:40.797Z,8.20
2023-11-25T14:23:11.294Z,9.10
2023-11-25T14:25:39.780Z,8.20
2023-11-25T14:28:09.052Z,8.20
2023-11-25T14:30:38.003Z,9.00
2023-11-25T14:33:07.475Z,8.30
2023-11-25T14:35:35.581Z,8.70
2023-11-25T14:38:05.683Z,8.60
2023-11-25T14:40:37.092Z,8.30
2023-11-25T14:43:06.744Z,9.20
2023-11-25T14:45:35.762Z,8.50
2023-11-25T14:48:05.817Z,8.30
2023-11-25T14:50:41.746Z,8.30
2023-11-25T14:53:12.932Z,8.20
2023-11-25T14:55:43.621Z,8.20
2023-11-25T14:58:11.872Z,8.10
2023-11-25T15:00:41.782Z,8.60
2023-11-25T15:03:11.066Z,8.10
2023-11-25T15:05:40.673Z,8.30
2023-11-25T15:08:08.746Z,7.00
2023-11-25T15:10:36.793Z,7.90
2023-11-25T15:13:05.083Z,8.30
2023-11-25T15:15:33.052Z,7.90
2023-11-25T15:18:01.237Z,8.00
2023-11-25T15:20:29.304Z,8.00
2023-11-25T15:23:01.231Z,8.00
2023-11-25T15:25:29.559Z,8.10
2023-11-25T15:27:57.580Z,8.10
2023-11-25T15:30:26.777Z,8.40
2023-11-25T15:32:54.824Z,8.20
2023-11-25T15:35:22.901Z,8.20
2023-11-25T15:37:51.001Z,8.20
2023-11-25T15:40:20.641Z,8.20
2023-11-25T15:42:49.372Z,8.20
2023-11-25T15:45:17.852Z,8.10
2023-11-25T15:47:46.576Z,8.10
2023-11-25T15:50:16.061Z,8.10
2023-11-25T15:52:44.598Z,8.10
2023-11-25T15:55:12.966Z,8.20
2023-11-25T15:57:42.358Z,8.20
2023-11-25T16:00:14.935Z,8.20
2023-11-25T16:02:44.123Z,8.20
2023-11-25T16:05:14.373Z,8.20
2023-11-25T16:07:42.723Z,8.10
2023-11-25T16:10:11.710Z,8.10
2023-11-25T16:12:39.989Z,8.60
2023-11-25T16:15:10.866Z,8.60
2023-11-25T16:17:39.611Z,7.90
2023-11-25T16:20:09.204Z,8.50
2023-11-25T16:22:37.628Z,7.80
2023-11-25T16:25:07.776Z,7.80
2023-11-25T16:27:35.729Z,7.80
2023-11-25T16:30:04.280Z,7.70
2023-11-25T16:32:33.864Z,7.60
2023-11-25T16:35:02.087Z,8.00
2023-11-25T16:37:30.081Z,7.50
2023-11-25T16:39:59.147Z,7.50
2023-11-25T16:42:27.206Z,7.50
2023-11-25T16:44:55.320Z,7.40
2023-11-25T16:47:23.399Z,7.40
2023-11-25T16:49:52.795Z,7.90
2023-11-25T16:52:20.863Z,7.40
2023-11-25T16:54:48.816Z,8.60
2023-11-25T16:57:16.889Z,7.80
2023-11-25T16:59:45.217Z,7.30
2023-11-25T17:02:13.416Z,7.30
2023-11-25T17:04:41.628Z,7.30
2023-11-25T17:07:12.053Z,7.20
2023-11-25T17:09:40.213Z,7.20
2023-11-25T17:12:08.887Z,7.90
2023-11-25T17:14:37.490Z,7.10
2023-11-25T17:17:09.463Z,7.00
2023-11-25T17:19:37.728Z,7.00
2023-11-25T17:22:06.128Z,7.10
2023-11-25T17:24:36.971Z,7.10
2023-11-25T17:27:05.431Z,7.00
2023-11-25T17:29:34.549Z,7.00
2023-11-25T17:32:05.210Z,7.00
2023-11-25T17:34:33.397Z,7.10
2023-11-25T17:37:01.850Z,7.10
2023-11-25T17:39:29.964Z,8.20
2023-11-25T17:42:00.023Z,7.10
2023-11-25T17:44:28.126Z,7.10
2023-11-25T17:46:56.143Z,7.20
2023-11-25T17:49:24.209Z,7.20
2023-11-25T17:51:53.023Z,7.30
2023-11-25T17:54:21.037Z,8.10
2023-11-25T17:56:49.067Z,7.30
2023-11-25T17:59:18.476Z,8.10
2023-11-25T18:01:46.645Z,7.60
2023-11-25T18:04:14.750Z,8.60
2023-11-25T18:06:42.776Z,7.40
2023-11-25T18:09:11.094Z,7.40
2023-11-25T18:11:40.294Z,8.50
2023-11-25T18:14:14.008Z,8.50
2023-11-25T18:16:46.226Z,7.70
2023-11-25T18:19:15.499Z,8.30
2023-11-25T18:21:43.809Z,7.10
2023-11-25T18:24:12.086Z,8.10
2023-11-25T18:26:40.370Z,7.00
2023-11-25T18:29:08.511Z,7.00
2023-11-25T18:31:37.015Z,7.00
2023-11-25T18:34:06.683Z,7.00
2023-11-25T18:36:34.786Z,7.00
2023-11-25T18:39:03.461Z,6.90
2023-11-25T18:41:31.856Z,6.90
2023-11-25T18:43:59.943Z,6.90
2023-11-25T18:46:27.990Z,7.10
2023-11-25T18:48:56.418Z,7.00
2023-11-25T18:51:27.522Z,7.00
2023-11-25T18:53:55.706Z,7.00
2023-11-25T18:56:23.979Z,7.00
2023-11-25T18:58:52.646Z,7.00
2023-11-25T19:01:29.484Z,6.90
2023-11-25T19:03:58.030Z,6.80
2023-11-25T19:06:28.479Z,6.80
2023-11-25T19:08:56.711Z,6.80
2023-11-25T19:11:24.974Z,7.10
2023-11-25T19:13:54.569Z,6.70
2023-11-25T19:16:23.389Z,6.70
2023-11-25T19:18:50.429Z,7.70
2023-11-25T19:21:18.522Z,6.70
2023-11-25T19:23:48.317Z,6.70
2023-11-25T19:26:16.572Z,6.70
2023-11-25T19:28:44.828Z,6.70
2023-11-25T19:31:14.438Z,6.70
2023-11-25T19:33:45.547Z,6.70
2023-11-25T19:36:14.928Z,6.60
2023-11-25T19:38:42.930Z,6.60
2023-11-25T19:41:12.634Z,6.60
2023-11-25T19:43:41.814Z,6.60
2023-11-25T19:46:13.392Z,7.10
2023-11-25T19:48:42.256Z,7.60
2023-11-25T19:51:10.464Z,7.10
2023-11-25T19:53:50.015Z,6.60
2023-11-25T19:56:21.906Z,6.50
2023-11-25T19:58:50.905Z,6.50
2023-11-25T20:01:19.080Z,6.50
2023-11-25T20:03:47.489Z,5.40
2023-11-25T20:06:15.673Z,6.70
2023-11-25T20:08:44.089Z,6.40
2023-11-25T20:11:12.298Z,6.40
2023-11-25T20:13:41.800Z,6.30
2023-11-25T20:16:11.053Z,6.50
2023-11-25T20:18:39.240Z,6.30
2023-11-25T20:21:07.798Z,6.30
2023-11-25T20:23:35.997Z,6.30
2023-11-25T20:26:04.122Z,6.20
2023-11-25T20:28:32.466Z,6.20
2023-11-25T20:31:03.633Z,6.20
2023-11-25T20:33:31.966Z,6.80
2023-11-25T20:36:00.052Z,6.10
2023-11-25T20:38:28.376Z,6.10
2023-11-25T20:40:56.901Z,6.00
2023-11-25T20:43:24.929Z,6.00
2023-11-25T20:45:53.414Z,6.00
2023-11-25T20:48:23.767Z,6.00
2023-11-25T20:50:53.210Z,6.00
2023-11-25T20:53:21.547Z,6.00
2023-11-25T20:55:49.634Z,6.10
2023-11-25T20:58:17.614Z,6.80
2023-11-25T21:00:46.192Z,6.20
2023-11-25T21:03:14.439Z,6.80
2023-11-25T21:05:43.855Z,6.20
2023-11-25T21:08:14.919Z,6.20
2023-11-25T21:10:43.108Z,6.20
2023-11-25T21:13:11.166Z,7.00
2023-11-25T21:15:39.220Z,6.10
2023-11-25T21:18:07.795Z,6.10
2023-11-25T21:20:35.842Z,6.10
2023-11-25T21:23:05.492Z,6.20
2023-11-25T21:25:33.623Z,6.20
2023-11-25T21:28:01.650Z,6.10
2023-11-25T21:30:29.585Z,6.20
2023-11-25T21:32:58.146Z,6.10
2023-11-25T21:35:26.322Z,6.00
2023-11-25T21:37:54.495Z,6.00
2023-11-25T21:40:24.409Z,6.00
2023-11-25T21:42:52.788Z,7.00
2023-11-25T21:45:20.852Z,5.90
2023-11-25T21:47:48.981Z,6.40
2023-11-25T21:50:17.441Z,5.80
2023-11-25T21:52:45.745Z,5.70
2023-11-25T21:55:13.695Z,5.70
2023-11-25T21:57:43.087Z,5.60
2023-11-25T22:00:14.104Z,5.60
2023-11-25T22:02:44.748Z,5.60
2023-11-25T22:05:15.137Z,5.60
2023-11-25T22:07:43.146Z,5.60
2023-11-25T22:10:21.879Z,5.70
2023-11-25T22:12:58.074Z,5.80
2023-11-25T22:15:26.657Z,6.10
2023-11-25T22:17:54.986Z,5.80
2023-11-25T22:20:23.227Z,5.80
2023-11-25T22:22:51.422Z,5.80
2023-11-25T22:25:27.848Z,6.50
2023-11-25T22:27:57.350Z,5.80
2023-11-25T22:30:25.863Z,6.00
2023-11-25T22:32:54.738Z,5.80
2023-11-25T22:35:22.941Z,6.30
2023-11-25T22:37:51.024Z,6.30
2023-11-25T22:40:19.548Z,5.90
2023-11-25T22:42:47.644Z,5.90
2023-11-25T22:45:17.176Z,5.90
2023-11-25T22:47:45.201Z,7.10
2023-11-25T22:50:13.519Z,5.80
2023-11-25T22:52:42.527Z,5.60
2023-11-25T22:55:12.030Z,5.70
2023-11-25T22:57:40.257Z,6.30
2023-11-25T23:00:16.876Z,5.60
2023-11-25T23:02:46.539Z,5.50
2023-11-25T23:05:22.953Z,5.50
2023-11-25T23:07:51.884Z,5.40
2023-11-25T23:10:41.519Z,5.40
2023-11-25T23:13:18.532Z,5.30
2023-11-25T23:15:46.590Z,5.40
2023-11-25T23:18:15.998Z,5.30
2023-11-25T23:20:44.155Z,5.30
2023-11-25T23:23:13.008Z,5.20
2023-11-25T23:25:41.025Z,5.20
2023-11-25T23:28:09.002Z,5.20
2023-11-25T23:30:41.857Z,5.20
2023-11-25T23:33:10.006Z,6.20
2023-11-25T23:35:39.399Z,5.10
2023-11-25T23:38:08.190Z,5.10
2023-11-25T23:40:36.259Z,5.00
2023-11-25T23:43:04.856Z,5.00
2023-11-25T23:45:32.870Z,5.40
2023-11-25T23:48:00.908Z,5.00
2023-11-25T23:50:29.059Z,4.90
2023-11-25T23:52:58.787Z,4.90
2023-11-25T23:55:27.106Z,4.80
2023-11-25T23:57:55.345Z,4.80
